createdAt,value
2018-07-30T00:02:30.708Z,72.28
2018-07-30T00:04:59.846Z,72.21
2018-07-30T00:07:28.972Z,72.61
2018-07-30T00:09:58.030Z,73.97
2018-07-30T00:12:27.185Z,72.64
2018-07-30T00:14:56.313Z,73.42
2018-07-30T00:17:25.457Z,73.70
2018-07-30T00:19:54.645Z,73.21
2018-07-30T00:22:23.941Z,74.04
2018-07-30T00:24:59.876Z,73.34
2018-07-30T00:27:29.101Z,73.88
2018-07-30T00:29:58.228Z,74.97
2018-07-30T00:32:27.344Z,74.99
2018-07-30T00:34:56.459Z,74.76
2018-07-30T00:37:25.642Z,75.47
2018-07-30T00:39:54.914Z,75.40
2018-07-30T00:42:24.062Z,74.86
2018-07-30T00:44:53.190Z,74.58
2018-07-30T00:47:22.344Z,74.77
2018-07-30T00:49:51.540Z,75.58
2018-07-30T00:52:20.605Z,75.69
2018-07-30T00:54:49.802Z,76.04
2018-07-30T00:57:18.966Z,75.35
2018-07-30T00:59:48.113Z,76.15
2018-07-30T01:02:17.223Z,74.96
2018-07-30T01:04:46.325Z,75.21
2018-07-30T01:07:15.563Z,75.80
2018-07-30T01:09:44.770Z,75.65
2018-07-30T01:12:13.917Z,75.67
2018-07-30T01:14:43.069Z,75.26
2018-07-30T01:17:12.187Z,75.22
2018-07-30T01:19:41.283Z,74.68
2018-07-30T01:22:10.465Z,75.76
2018-07-30T01:24:39.629Z,77.07
2018-07-30T01:27:08.920Z,76.48
2018-07-30T01:29:38.040Z,77.17
2018-07-30T01:32:07.501Z,76.23
2018-07-30T01:34:36.661Z,75.11
2018-07-30T01:37:05.822Z,76.80
2018-07-30T01:39:35.015Z,75.77
2018-07-30T01:42:04.240Z,76.69
2018-07-30T01:44:33.362Z,74.72
2018-07-30T01:47:02.724Z,75.82
2018-07-30T01:49:31.889Z,76.17
2018-07-30T01:52:01.077Z,75.98
2018-07-30T01:54:30.179Z,75.83
2018-07-30T01:56:59.313Z,76.11
2018-07-30T01:59:28.446Z,75.70
2018-07-30T02:01:57.772Z,76.85
2018-07-30T02:04:26.904Z,75.85
2018-07-30T02:06:56.100Z,76.80
2018-07-30T02:09:25.164Z,76.05
2018-07-30T02:11:54.276Z,75.39
2018-07-30T02:14:23.389Z,75.12
2018-07-30T02:16:52.508Z,75.86
2018-07-30T02:19:22.576Z,76.32
2018-07-30T02:21:51.660Z,76.35
2018-07-30T02:24:20.822Z,76.17
2018-07-30T02:26:50.020Z,75.93
2018-07-30T02:29:19.183Z,76.07
2018-07-30T02:31:48.328Z,77.75
2018-07-30T02:34:17.506Z,76.29
2018-07-30T02:36:46.984Z,77.42
2018-07-30T02:39:16.120Z,76.83
2018-07-30T02:41:45.296Z,76.40
2018-07-30T02:44:14.449Z,77.39
2018-07-30T02:46:43.602Z,76.37
2018-07-30T02:49:12.702Z,76.41
2018-07-30T02:51:42.152Z,77.33
2018-07-30T02:54:11.313Z,77.47
2018-07-30T02:56:40.538Z,77.18
2018-07-30T02:59:10.142Z,77.37
2018-07-30T03:01:39.245Z,77.20
2018-07-30T03:04:08.391Z,76.85
2018-07-30T03:06:38.562Z,77.23
2018-07-30T03:09:08.934Z,77.60
2018-07-30T03:11:38.456Z,77.08
2018-07-30T03:14:07.841Z,77.21
2018-07-30T03:16:37.013Z,76.01
2018-07-30T03:19:06.334Z,76.13
2018-07-30T03:21:35.425Z,75.72
2018-07-30T03:24:04.836Z,75.07
2018-07-30T03:26:34.060Z,74.20
2018-07-30T03:29:03.283Z,74.00
2018-07-30T03:31:32.436Z,73.62
2018-07-30T03:34:01.556Z,74.32
2018-07-30T03:36:30.705Z,75.18
2018-07-30T03:38:59.910Z,74.62
2018-07-30T03:41:29.001Z,74.08
2018-07-30T03:43:58.187Z,74.44
2018-07-30T03:46:27.305Z,73.35
2018-07-30T03:48:56.538Z,74.55
2018-07-30T03:51:25.641Z,74.90
2018-07-30T03:53:54.841Z,74.34
2018-07-30T03:56:24.099Z,74.57
2018-07-30T03:58:53.325Z,74.44
2018-07-30T04:01:22.661Z,75.51
2018-07-30T04:03:51.856Z,75.57
2018-07-30T04:06:21.065Z,75.38
2018-07-30T04:08:50.359Z,76.01
2018-07-30T04:11:19.445Z,76.02
2018-07-30T04:13:48.624Z,75.90
2018-07-30T04:16:17.846Z,75.91
2018-07-30T04:18:47.314Z,75.30
2018-07-30T04:21:16.546Z,76.13
2018-07-30T04:23:45.642Z,75.96
2018-07-30T04:26:15.636Z,76.23
2018-07-30T04:28:44.768Z,76.52
2018-07-30T04:31:14.063Z,77.32
2018-07-30T04:33:43.275Z,77.47
2018-07-30T04:36:12.406Z,76.35
2018-07-30T04:38:41.704Z,76.73
2018-07-30T04:41:10.916Z,77.22
2018-07-30T04:43:40.047Z,76.37
2018-07-30T04:46:09.199Z,76.76
2018-07-30T04:48:38.368Z,76.75
2018-07-30T04:51:07.486Z,76.49
2018-07-30T04:53:36.724Z,76.41
2018-07-30T04:56:05.834Z,76.82
2018-07-30T04:58:35.008Z,76.98
2018-07-30T05:01:04.184Z,76.43
2018-07-30T05:03:33.272Z,76.88
2018-07-30T05:06:02.402Z,76.79
2018-07-30T05:08:31.522Z,75.98
2018-07-30T05:11:00.688Z,73.05
2018-07-30T05:13:29.794Z,71.77
2018-07-30T05:15:58.946Z,71.97
2018-07-30T05:18:28.146Z,70.08
2018-07-30T05:20:57.344Z,69.89
2018-07-30T05:23:26.525Z,69.04
2018-07-30T05:25:55.678Z,68.81
2018-07-30T05:28:24.879Z,68.13
2018-07-30T05:30:53.990Z,68.33
2018-07-30T05:33:23.137Z,68.20
2018-07-30T05:35:52.241Z,67.86
2018-07-30T05:38:21.422Z,67.78
2018-07-30T05:40:50.913Z,67.23
2018-07-30T05:43:20.134Z,66.61
2018-07-30T05:45:49.273Z,66.63
2018-07-30T05:48:18.509Z,66.44
2018-07-30T05:50:47.617Z,65.94
2018-07-30T05:53:16.947Z,65.36
2018-07-30T05:55:46.259Z,65.15
2018-07-30T05:58:15.391Z,64.79
2018-07-30T06:00:44.513Z,64.79
2018-07-30T06:03:13.725Z,63.74
2018-07-30T06:05:43.043Z,64.20
2018-07-30T06:08:12.365Z,64.37
2018-07-30T06:10:41.525Z,64.79
2018-07-30T06:13:10.692Z,65.46
2018-07-30T06:15:39.872Z,64.71
2018-07-30T06:18:09.100Z,65.00
2018-07-30T06:20:38.250Z,63.76
2018-07-30T06:23:07.356Z,63.00
2018-07-30T06:25:36.510Z,63.13
2018-07-30T06:28:06.260Z,64.46
2018-07-30T06:30:35.412Z,61.27
2018-07-30T06:33:04.552Z,60.55
2018-07-30T06:35:33.708Z,61.19
2018-07-30T06:38:03.034Z,61.54
2018-07-30T06:40:32.152Z,61.02
2018-07-30T06:43:01.590Z,61.65
2018-07-30T06:45:33.564Z,59.08
2018-07-30T06:48:02.779Z,59.32
2018-07-30T06:50:32.217Z,59.64
2018-07-30T06:53:01.344Z,61.92
2018-07-30T06:55:30.456Z,59.85
2018-07-30T06:57:59.588Z,59.70
2018-07-30T07:00:28.803Z,61.08
2018-07-30T07:02:57.942Z,60.95
2018-07-30T07:05:27.038Z,58.87
2018-07-30T07:07:56.305Z,58.96
2018-07-30T07:10:25.461Z,60.40
2018-07-30T07:12:55.018Z,59.39
2018-07-30T07:15:24.222Z,59.38
2018-07-30T07:17:53.300Z,60.39
2018-07-30T07:20:22.413Z,60.21
2018-07-30T07:22:51.764Z,58.69
2018-07-30T07:25:21.014Z,60.69
2018-07-30T07:27:50.429Z,58.68
2018-07-30T07:30:19.482Z,58.84
2018-07-30T07:32:48.615Z,59.08
2018-07-30T07:35:17.706Z,59.49
2018-07-30T07:37:46.911Z,56.93
2018-07-30T07:40:16.186Z,57.08
2018-07-30T07:42:45.252Z,56.83
2018-07-30T07:45:14.420Z,57.34
2018-07-30T07:47:43.565Z,57.83
2018-07-30T07:50:12.845Z,56.20
2018-07-30T07:52:41.861Z,56.29
2018-07-30T07:55:10.944Z,56.13
2018-07-30T07:57:40.037Z,57.06
2018-07-30T08:00:10.941Z,56.09
2018-07-30T08:02:40.161Z,54.61
2018-07-30T08:05:09.529Z,55.35
2018-07-30T08:07:38.657Z,55.91
2018-07-30T08:10:08.553Z,55.72
2018-07-30T08:12:37.901Z,56.27
2018-07-30T08:15:08.056Z,54.61
2018-07-30T08:17:37.277Z,55.47
2018-07-30T08:20:07.281Z,54.99
2018-07-30T08:22:36.586Z,56.32
2018-07-30T08:25:08.461Z,53.73
2018-07-30T08:27:37.631Z,54.12
2018-07-30T08:30:07.761Z,53.62
2018-07-30T08:32:37.291Z,57.81
2018-07-30T08:35:07.269Z,54.76
2018-07-30T08:37:36.356Z,52.56
2018-07-30T08:40:06.595Z,52.17
2018-07-30T08:42:35.892Z,51.02
2018-07-30T08:45:06.213Z,51.69
2018-07-30T08:47:35.461Z,50.54
2018-07-30T08:50:04.877Z,50.00
2018-07-30T08:52:34.258Z,52.17
2018-07-30T08:55:03.415Z,51.88
2018-07-30T08:57:32.480Z,50.80
2018-07-30T09:00:01.669Z,49.65
2018-07-30T09:02:31.110Z,51.00
2018-07-30T09:05:00.297Z,51.81
2018-07-30T09:07:29.512Z,52.42
2018-07-30T09:09:58.660Z,51.37
2018-07-30T09:12:27.772Z,48.18
2018-07-30T09:14:56.896Z,49.65
2018-07-30T09:17:26.065Z,48.97
2018-07-30T09:19:55.229Z,49.17
2018-07-30T09:22:24.380Z,49.90
2018-07-30T09:24:53.596Z,51.11
2018-07-30T09:27:22.708Z,50.03
2018-07-30T09:29:51.925Z,48.60
2018-07-30T09:32:21.012Z,48.01
2018-07-30T09:34:50.822Z,47.40
2018-07-30T09:37:19.948Z,46.72
2018-07-30T09:39:49.044Z,46.23
2018-07-30T09:42:18.141Z,46.20
2018-07-30T09:44:47.604Z,46.28
2018-07-30T09:47:16.823Z,46.92
2018-07-30T09:49:45.968Z,47.07
2018-07-30T09:52:15.052Z,47.03
2018-07-30T09:54:44.271Z,49.55
2018-07-30T09:57:13.537Z,50.20
2018-07-30T09:59:42.713Z,50.72
2018-07-30T10:02:11.949Z,49.69
2018-07-30T10:04:43.768Z,47.88
2018-07-30T10:07:13.886Z,48.80
2018-07-30T10:09:43.078Z,50.40
2018-07-30T10:12:12.201Z,51.45
2018-07-30T10:14:41.399Z,46.16
2018-07-30T10:17:10.512Z,44.86
2018-07-30T10:19:39.690Z,46.35
2018-07-30T10:22:08.922Z,46.46
2018-07-30T10:24:38.024Z,44.17
2018-07-30T10:27:07.291Z,44.82
2018-07-30T10:29:36.379Z,42.12
2018-07-30T10:32:05.849Z,43.49
2018-07-30T10:34:35.073Z,45.65
2018-07-30T10:37:04.110Z,42.35
2018-07-30T10:39:33.260Z,46.06
2018-07-30T10:42:02.411Z,46.38
2018-07-30T10:44:31.652Z,45.83
2018-07-30T10:47:00.797Z,45.43
2018-07-30T10:49:30.358Z,45.07
2018-07-30T10:51:59.479Z,45.14
2018-07-30T10:54:28.745Z,43.52
2018-07-30T10:56:57.941Z,46.91
2018-07-30T10:59:27.157Z,46.97
2018-07-30T11:01:56.257Z,46.34
2018-07-30T11:04:25.559Z,44.02
2018-07-30T11:06:54.736Z,46.04
2018-07-30T11:09:26.702Z,45.88
2018-07-30T11:11:53.073Z,46.09
2018-07-30T11:14:22.239Z,46.38
2018-07-30T11:16:51.437Z,45.56
2018-07-30T11:19:20.702Z,45.50
2018-07-30T11:21:49.842Z,44.93
2018-07-30T11:24:19.128Z,45.50
2018-07-30T11:26:48.224Z,44.02
2018-07-30T11:29:17.378Z,43.42
2018-07-30T11:31:46.414Z,42.43
2018-07-30T11:34:15.626Z,41.47
2018-07-30T11:36:44.806Z,41.75
2018-07-30T11:39:14.234Z,41.48
2018-07-30T11:41:43.430Z,38.30
2018-07-30T11:44:12.649Z,38.42
2018-07-30T11:46:41.927Z,37.00
2018-07-30T11:49:11.142Z,38.21
2018-07-30T11:51:40.378Z,38.97
2018-07-30T11:54:09.641Z,41.60
2018-07-30T11:56:38.700Z,41.65
2018-07-30T11:59:07.848Z,42.65
2018-07-30T12:01:37.007Z,43.16
2018-07-30T12:04:06.846Z,37.71
2018-07-30T12:06:36.003Z,39.09
2018-07-30T12:09:06.549Z,40.68
2018-07-30T12:11:35.852Z,40.95
2018-07-30T12:14:04.986Z,38.42
2018-07-30T12:16:34.198Z,38.52
2018-07-30T12:19:03.848Z,37.90
2018-07-30T12:21:32.933Z,35.41
2018-07-30T12:24:02.069Z,37.20
2018-07-30T12:26:31.255Z,37.49
2018-07-30T12:29:00.295Z,37.99
2018-07-30T12:31:29.574Z,37.26
2018-07-30T12:33:58.720Z,37.49
2018-07-30T12:36:28.054Z,39.49
2018-07-30T12:38:57.136Z,41.78
2018-07-30T12:41:26.309Z,38.72
2018-07-30T12:43:55.509Z,40.86
2018-07-30T12:46:24.677Z,41.93
2018-07-30T12:48:53.798Z,37.69
2018-07-30T12:51:22.899Z,37.90
2018-07-30T12:53:52.077Z,43.86
2018-07-30T12:56:21.382Z,28.59
2018-07-30T12:58:50.480Z,38.30
2018-07-30T13:01:19.674Z,34.01
2018-07-30T13:03:48.768Z,30.31
2018-07-30T13:06:17.980Z,32.70
2018-07-30T13:08:47.096Z,36.54
2018-07-30T13:11:16.882Z,39.24
2018-07-30T13:13:46.137Z,28.55
2018-07-30T13:16:15.335Z,30.87
2018-07-30T13:18:44.486Z,32.42
2018-07-30T13:21:13.770Z,29.15
2018-07-30T13:23:42.898Z,29.52
2018-07-30T13:26:12.148Z,30.26
2018-07-30T13:28:41.292Z,25.80
2018-07-30T13:31:10.474Z,30.13
2018-07-30T13:33:39.628Z,28.79
2018-07-30T13:36:08.845Z,32.36
2018-07-30T13:38:38.883Z,31.37
2018-07-30T13:41:08.151Z,30.76
2018-07-30T13:43:37.220Z,31.23
2018-07-30T13:46:06.405Z,30.97
2018-07-30T13:48:35.561Z,27.56
2018-07-30T13:51:04.696Z,25.31
2018-07-30T13:53:33.912Z,25.22
2018-07-30T13:56:03.089Z,29.47
2018-07-30T13:58:32.155Z,32.30
2018-07-30T14:01:01.416Z,33.44
2018-07-30T14:03:30.612Z,28.81
2018-07-30T14:05:59.741Z,29.70
2018-07-30T14:08:28.853Z,31.12
2018-07-30T14:10:58.089Z,35.18
2018-07-30T14:13:27.187Z,33.89
2018-07-30T14:15:56.317Z,31.81
2018-07-30T14:18:25.598Z,32.67
2018-07-30T14:20:54.913Z,33.47
2018-07-30T14:23:24.035Z,31.48
2018-07-30T14:25:53.315Z,27.82
2018-07-30T14:28:22.469Z,34.82
2018-07-30T14:30:51.493Z,27.39
2018-07-30T14:33:20.734Z,25.72
2018-07-30T14:35:49.869Z,25.38
2018-07-30T14:38:19.148Z,27.09
2018-07-30T14:40:48.199Z,26.25
2018-07-30T14:43:17.349Z,28.62
2018-07-30T14:45:46.652Z,25.30
2018-07-30T14:48:15.816Z,23.66
2018-07-30T14:50:44.988Z,28.13
2018-07-30T14:53:14.339Z,25.92
2018-07-30T14:55:43.658Z,29.47
2018-07-30T14:58:12.909Z,29.49
2018-07-30T15:00:42.005Z,27.84
2018-07-30T15:03:11.186Z,31.63
2018-07-30T15:05:40.344Z,29.81
2018-07-30T15:08:09.420Z,26.99
2018-07-30T15:10:38.540Z,26.99
2018-07-30T15:13:07.682Z,27.61
2018-07-30T15:15:36.920Z,27.46
2018-07-30T15:18:06.043Z,23.75
2018-07-30T15:20:35.263Z,29.16
2018-07-30T15:23:04.463Z,27.21
2018-07-30T15:25:33.752Z,27.46
2018-07-30T15:28:02.886Z,27.30
2018-07-30T15:30:32.578Z,26.32
2018-07-30T15:33:01.734Z,25.72
2018-07-30T15:35:30.975Z,27.73
2018-07-30T15:38:00.150Z,23.67
2018-07-30T15:40:30.286Z,23.88
2018-07-30T15:42:59.427Z,26.70
2018-07-30T15:45:28.590Z,26.54
2018-07-30T15:47:58.415Z,26.77
2018-07-30T15:50:27.485Z,24.23
2018-07-30T15:52:56.773Z,23.94
2018-07-30T15:55:26.165Z,26.10
2018-07-30T15:57:55.347Z,24.76
2018-07-30T16:00:24.965Z,24.95
2018-07-30T16:02:54.269Z,24.59
2018-07-30T16:05:23.386Z,25.88
2018-07-30T16:07:52.565Z,25.91
2018-07-30T16:10:21.761Z,25.52
2018-07-30T16:12:50.859Z,25.78
2018-07-30T16:15:20.195Z,24.37
2018-07-30T16:17:49.363Z,23.00
2018-07-30T16:20:18.444Z,23.65
2018-07-30T16:22:47.550Z,26.77
2018-07-30T16:25:16.771Z,24.67
2018-07-30T16:27:45.870Z,26.08
2018-07-30T16:30:15.052Z,25.07
2018-07-30T16:32:44.244Z,27.10
2018-07-30T16:35:13.722Z,25.56
2018-07-30T16:37:42.832Z,26.39
2018-07-30T16:40:12.236Z,24.77
2018-07-30T16:42:41.325Z,25.04
2018-07-30T16:45:10.944Z,23.54
2018-07-30T16:47:40.050Z,24.61
2018-07-30T16:50:10.150Z,24.70
2018-07-30T16:52:39.460Z,27.00
2018-07-30T16:55:08.708Z,26.44
2018-07-30T16:57:38.010Z,30.28
2018-07-30T17:00:09.490Z,25.63
2018-07-30T17:02:38.587Z,27.33
2018-07-30T17:05:08.041Z,25.37
2018-07-30T17:07:37.333Z,26.08
2018-07-30T17:10:06.804Z,29.39
2018-07-30T17:12:36.081Z,24.68
2018-07-30T17:15:05.625Z,27.43
2018-07-30T17:17:34.769Z,29.90
2018-07-30T17:20:04.978Z,26.62
2018-07-30T17:22:34.015Z,26.34
2018-07-30T17:25:03.222Z,25.58
2018-07-30T17:27:32.495Z,27.34
2018-07-30T17:30:01.622Z,26.52
2018-07-30T17:32:30.861Z,29.48
2018-07-30T17:35:00.309Z,29.79
2018-07-30T17:37:29.637Z,28.02
2018-07-30T17:39:58.901Z,29.78
2018-07-30T17:42:28.163Z,32.64
2018-07-30T17:44:57.532Z,33.02
2018-07-30T17:47:27.031Z,32.45
2018-07-30T17:49:56.197Z,33.60
2018-07-30T17:52:26.408Z,35.41
2018-07-30T17:54:55.489Z,35.23
2018-07-30T17:57:24.625Z,35.32
2018-07-30T17:59:53.867Z,34.65
2018-07-30T18:02:23.075Z,33.73
2018-07-30T18:04:52.265Z,35.01
2018-07-30T18:07:21.409Z,35.92
2018-07-30T18:09:50.657Z,36.89
2018-07-30T18:12:19.765Z,36.43
2018-07-30T18:14:48.929Z,36.61
2018-07-30T18:17:18.189Z,37.76
2018-07-30T18:19:48.265Z,38.71
2018-07-30T18:22:17.441Z,38.38
2018-07-30T18:24:46.557Z,40.10
2018-07-30T18:27:16.069Z,40.76
2018-07-30T18:29:45.239Z,40.27
2018-07-30T18:32:14.284Z,39.22
2018-07-30T18:34:43.484Z,40.61
2018-07-30T18:37:12.821Z,39.39
2018-07-30T18:39:42.236Z,39.27
2018-07-30T18:42:11.439Z,41.61
2018-07-30T18:44:41.135Z,40.37
2018-07-30T18:47:10.231Z,40.95
2018-07-30T18:49:39.427Z,42.18
2018-07-30T18:52:08.717Z,41.91
2018-07-30T18:54:37.888Z,42.01
2018-07-30T18:57:07.004Z,42.73
2018-07-30T18:59:36.262Z,43.27
2018-07-30T19:02:05.402Z,43.17
2018-07-30T19:04:34.754Z,42.45
2018-07-30T19:07:03.859Z,44.28
2018-07-30T19:09:33.012Z,44.30
2018-07-30T19:12:02.209Z,44.02
2018-07-30T19:14:31.398Z,45.25
2018-07-30T19:17:00.588Z,43.31
2018-07-30T19:19:29.820Z,44.73
2018-07-30T19:21:58.914Z,44.99
2018-07-30T19:24:28.138Z,45.38
2018-07-30T19:26:57.268Z,46.02
2018-07-30T19:29:26.522Z,47.34
2018-07-30T19:31:55.670Z,47.09
2018-07-30T19:34:24.798Z,45.46
2018-07-30T19:36:53.857Z,46.86
2018-07-30T19:39:23.000Z,46.93
2018-07-30T19:41:52.186Z,47.04
2018-07-30T19:44:21.349Z,47.44
2018-07-30T19:46:50.539Z,47.68
2018-07-30T19:49:19.721Z,48.48
2018-07-30T19:51:48.913Z,48.17
2018-07-30T19:54:18.093Z,49.63
2018-07-30T19:56:47.340Z,48.31
2018-07-30T19:59:16.436Z,49.06
2018-07-30T20:01:45.669Z,48.73
2018-07-30T20:04:14.877Z,48.43
2018-07-30T20:06:44.235Z,50.90
2018-07-30T20:09:13.341Z,50.82
2018-07-30T20:11:42.531Z,50.16
2018-07-30T20:14:11.729Z,50.99
2018-07-30T20:16:40.812Z,50.28
2018-07-30T20:19:10.041Z,51.94
2018-07-30T20:21:39.223Z,51.92
2018-07-30T20:24:08.317Z,53.50
2018-07-30T20:26:37.504Z,52.25
2018-07-30T20:29:09.628Z,51.35
2018-07-30T20:31:38.963Z,51.99
2018-07-30T20:34:08.073Z,51.41
2018-07-30T20:36:37.251Z,52.49
2018-07-30T20:39:09.037Z,51.92
2018-07-30T20:41:38.167Z,52.03
2018-07-30T20:44:07.333Z,50.84
2018-07-30T20:46:36.517Z,50.81
2018-07-30T20:49:05.985Z,51.05
2018-07-30T20:51:35.212Z,50.99
2018-07-30T20:54:04.315Z,51.59
2018-07-30T20:56:33.613Z,52.71
2018-07-30T20:59:02.808Z,53.55
2018-07-30T21:01:32.131Z,52.95
2018-07-30T21:04:01.279Z,53.21
2018-07-30T21:06:30.480Z,53.84
2018-07-30T21:08:59.633Z,53.57
2018-07-30T21:11:28.848Z,55.30
2018-07-30T21:13:57.940Z,55.67
2018-07-30T21:16:27.029Z,54.26
2018-07-30T21:18:56.245Z,55.16
2018-07-30T21:21:25.464Z,54.68
2018-07-30T21:23:54.712Z,56.19
2018-07-30T21:26:23.848Z,55.53
2018-07-30T21:28:53.116Z,56.14
2018-07-30T21:31:22.376Z,57.03
2018-07-30T21:33:51.651Z,56.71
2018-07-30T21:36:20.883Z,57.20
2018-07-30T21:38:50.001Z,57.29
2018-07-30T21:41:19.157Z,58.09
2018-07-30T21:43:48.494Z,58.73
2018-07-30T21:46:17.605Z,58.73
2018-07-30T21:48:46.745Z,58.36
2018-07-30T21:51:15.887Z,58.95
2018-07-30T21:53:45.062Z,57.79
2018-07-30T21:59:14.166Z,58.29
2018-07-30T22:01:43.428Z,59.35
2018-07-30T22:04:12.545Z,59.53
2018-07-30T22:06:41.669Z,59.54
2018-07-30T22:09:11.164Z,59.68
2018-07-30T22:11:40.358Z,60.01
2018-07-30T22:14:09.587Z,59.58
2018-07-30T22:16:38.660Z,59.76
2018-07-30T22:19:07.886Z,61.31
2018-07-30T22:21:37.555Z,61.47
2018-07-30T22:24:07.114Z,60.55
2018-07-30T22:26:36.238Z,60.25
2018-07-30T22:29:05.370Z,61.72
2018-07-30T22:31:34.522Z,60.63
2018-07-30T22:34:03.790Z,60.34
2018-07-30T22:36:32.978Z,61.65
2018-07-30T22:39:02.135Z,62.06
2018-07-30T22:41:31.216Z,61.95
2018-07-30T22:44:00.456Z,61.32
2018-07-30T22:46:29.544Z,61.51
2018-07-30T22:48:59.385Z,62.21
2018-07-30T22:51:28.780Z,62.57
2018-07-30T22:53:58.475Z,61.34
2018-07-30T22:56:28.909Z,62.14
2018-07-30T22:58:58.317Z,62.96
2018-07-30T23:01:27.473Z,61.44
2018-07-30T23:03:59.127Z,63.09
2018-07-30T23:06:30.301Z,62.04
2018-07-30T23:09:00.496Z,62.40
2018-07-30T23:11:30.512Z,62.75
2018-07-30T23:13:59.789Z,61.82
2018-07-30T23:16:29.878Z,62.33
2018-07-30T23:18:59.329Z,62.21
2018-07-30T23:21:29.569Z,62.66
2018-07-30T23:23:58.755Z,62.63
2018-07-30T23:26:27.957Z,63.48
2018-07-30T23:28:57.407Z,64.53
2018-07-30T23:31:26.609Z,63.37
2018-07-30T23:33:55.887Z,64.19
2018-07-30T23:36:26.762Z,64.62
2018-07-30T23:38:56.129Z,65.43
2018-07-30T23:41:25.568Z,64.52
2018-07-30T23:43:54.657Z,63.67
2018-07-30T23:46:24.207Z,64.73
2018-07-30T23:48:53.401Z,64.21
2018-07-30T23:51:23.237Z,66.58
2018-07-30T23:53:52.500Z,65.75
2018-07-30T23:56:23.800Z,65.27
2018-07-30T23:58:53.227Z,65.51
